createdAt,value
2017-05-22T00:01:12.529Z,6.7
2017-05-22T00:02:31.202Z,6.7
2017-05-22T00:03:49.879Z,6.7
2017-05-22T00:05:08.556Z,6.7
2017-05-22T00:06:27.289Z,6.6
2017-05-22T00:07:45.954Z,6.6
2017-05-22T00:09:04.614Z,6.6
2017-05-22T00:10:23.295Z,6.5
2017-05-22T00:11:41.974Z,6.5
2017-05-22T00:13:00.643Z,6.5
2017-05-22T00:14:19.309Z,6.5
2017-05-22T00:15:37.965Z,6.5
2017-05-22T00:16:56.632Z,6.5
2017-05-22T00:18:15.309Z,6.6
2017-05-22T00:19:33.999Z,6.6
2017-05-22T00:20:52.701Z,6.6
2017-05-22T00:22:11.431Z,6.6
2017-05-22T00:23:30.109Z,6.6
2017-05-22T00:24:48.816Z,6.6
2017-05-22T00:26:07.485Z,6.6
2017-05-22T00:27:26.163Z,6.6
2017-05-22T00:28:44.871Z,6.6
2017-05-22T00:30:03.548Z,6.6
2017-05-22T00:31:22.220Z,6.7
2017-05-22T00:32:40.919Z,6.7
2017-05-22T00:33:59.574Z,6.6
2017-05-22T00:35:18.238Z,6.6
2017-05-22T00:36:36.937Z,6.7
2017-05-22T00:37:55.614Z,6.7
2017-05-22T00:39:14.301Z,6.6
2017-05-22T00:40:32.960Z,6.6
2017-05-22T00:41:51.626Z,6.6
2017-05-22T00:43:10.350Z,6.6
2017-05-22T00:44:29.028Z,6.6
2017-05-22T00:45:47.687Z,6.6
2017-05-22T00:47:06.360Z,6.6
2017-05-22T00:48:25.070Z,6.6
2017-05-22T00:49:43.731Z,6.6
2017-05-22T00:51:02.480Z,6.6
2017-05-22T00:52:21.150Z,6.6
2017-05-22T00:53:39.850Z,6.6
2017-05-22T00:54:58.560Z,6.6
2017-05-22T00:56:17.262Z,6.7
2017-05-22T00:57:35.925Z,6.6
2017-05-22T00:58:54.658Z,6.6
2017-05-22T01:00:13.345Z,6.6
2017-05-22T01:01:32.022Z,6.6
2017-05-22T01:02:50.684Z,6.5
2017-05-22T01:04:09.378Z,6.5
2017-05-22T01:05:28.032Z,6.5
2017-05-22T01:06:46.708Z,6.5
2017-05-22T01:08:05.390Z,6.6
2017-05-22T01:09:24.149Z,6.6
2017-05-22T01:10:42.868Z,6.6
2017-05-22T01:12:01.574Z,6.6
2017-05-22T01:13:20.271Z,6.6
2017-05-22T01:14:38.970Z,6.6
2017-05-22T01:15:57.634Z,6.6
2017-05-22T01:17:16.334Z,6.7
2017-05-22T01:18:34.999Z,6.6
2017-05-22T01:19:53.688Z,6.6
2017-05-22T01:21:12.423Z,6.6
2017-05-22T01:22:31.113Z,6.6
2017-05-22T01:23:49.842Z,6.6
2017-05-22T01:25:08.566Z,6.6
2017-05-22T01:26:27.279Z,6.5
2017-05-22T01:27:45.987Z,6.5
2017-05-22T01:29:04.648Z,6.5
2017-05-22T01:30:23.337Z,6.5
2017-05-22T01:31:42.067Z,6.5
2017-05-22T01:33:00.730Z,6.5
2017-05-22T01:34:19.403Z,6.5
2017-05-22T01:35:38.128Z,6.4
2017-05-22T01:36:56.836Z,6.4
2017-05-22T01:38:15.550Z,6.4
2017-05-22T01:39:34.216Z,6.4
2017-05-22T01:40:52.899Z,6.4
2017-05-22T01:42:11.611Z,6.4
2017-05-22T01:43:30.317Z,6.3
2017-05-22T01:44:49.054Z,6.3
2017-05-22T01:46:07.737Z,6.3
2017-05-22T01:47:26.401Z,6.3
2017-05-22T01:48:45.067Z,6.3
2017-05-22T01:50:03.787Z,6.3
2017-05-22T01:51:22.507Z,6.3
2017-05-22T01:52:41.170Z,6.3
2017-05-22T01:53:59.875Z,6.3
2017-05-22T01:55:18.580Z,6.3
2017-05-22T01:56:37.313Z,6.3
2017-05-22T01:57:55.971Z,6.3
2017-05-22T01:59:14.630Z,6.3
2017-05-22T02:00:33.345Z,6.3
2017-05-22T02:01:52.015Z,6.4
2017-05-22T02:03:10.670Z,6.4
2017-05-22T02:04:29.325Z,6.4
2017-05-22T02:05:48.019Z,6.3
2017-05-22T02:07:06.756Z,6.3
2017-05-22T02:08:25.414Z,6.3
2017-05-22T02:09:44.103Z,6.3
2017-05-22T02:11:02.832Z,6.2
2017-05-22T02:12:21.497Z,6.2
2017-05-22T02:13:40.161Z,6.1
2017-05-22T02:14:58.849Z,6.1
2017-05-22T02:16:17.565Z,6.1
2017-05-22T02:17:36.305Z,6.1
2017-05-22T02:18:54.970Z,6.2
2017-05-22T02:20:13.635Z,6.2
2017-05-22T02:21:32.357Z,6.2
2017-05-22T02:22:51.035Z,6.2
2017-05-22T02:24:09.736Z,6.2
2017-05-22T02:25:28.456Z,6.3
2017-05-22T02:26:47.115Z,6.3
2017-05-22T02:28:05.816Z,6.3
2017-05-22T02:29:24.484Z,6.3
2017-05-22T02:30:43.139Z,6.3
2017-05-22T02:32:01.806Z,6.3
2017-05-22T02:33:20.523Z,6.3
2017-05-22T02:34:39.179Z,6.3
2017-05-22T02:35:57.846Z,6.3
2017-05-22T02:37:16.554Z,6.3
2017-05-22T02:38:35.226Z,6.3
2017-05-22T02:39:53.911Z,6.3
2017-05-22T02:41:12.576Z,6.3
2017-05-22T02:42:31.272Z,6.3
2017-05-22T02:43:49.972Z,6.4
2017-05-22T02:45:08.631Z,6.4
2017-05-22T02:46:27.351Z,6.4
2017-05-22T02:47:46.011Z,6.4
2017-05-22T02:49:04.690Z,6.4
2017-05-22T02:50:23.391Z,6.5
2017-05-22T02:51:42.108Z,6.5
2017-05-22T02:53:00.762Z,6.5
2017-05-22T02:54:19.504Z,6.6
2017-05-22T02:55:38.189Z,6.6
2017-05-22T02:56:56.863Z,6.6
2017-05-22T02:58:15.589Z,6.6
2017-05-22T02:59:34.260Z,6.6
2017-05-22T03:00:52.976Z,6.5
2017-05-22T03:02:11.640Z,6.5
2017-05-22T03:03:30.317Z,6.5
2017-05-22T03:04:49.043Z,6.4
2017-05-22T03:06:07.745Z,6.4
2017-05-22T03:07:26.411Z,6.3
2017-05-22T03:08:45.080Z,6.3
2017-05-22T03:10:03.821Z,6.3
2017-05-22T03:11:22.495Z,6.3
2017-05-22T03:12:41.150Z,6.2
2017-05-22T03:13:59.819Z,6.2
2017-05-22T03:15:18.521Z,6.2
2017-05-22T03:16:37.212Z,6.1
2017-05-22T03:17:55.875Z,6.1
2017-05-22T03:19:14.598Z,6.2
2017-05-22T03:20:33.321Z,6.2
2017-05-22T03:21:52.055Z,6.2
2017-05-22T03:23:10.724Z,6.2
2017-05-22T03:24:29.393Z,6.3
2017-05-22T03:25:48.073Z,6.3
2017-05-22T03:27:06.741Z,6.3
2017-05-22T03:28:25.448Z,6.3
2017-05-22T03:29:44.213Z,6.3
2017-05-22T03:31:02.923Z,6.3
2017-05-22T03:32:21.641Z,6.3
2017-05-22T03:33:40.342Z,6.2
2017-05-22T03:34:59.076Z,6.2
2017-05-22T03:36:17.758Z,6.2
2017-05-22T03:37:36.421Z,6.2
2017-05-22T03:38:55.107Z,6.2
2017-05-22T03:40:13.793Z,6.2
2017-05-22T03:41:32.524Z,6.2
2017-05-22T03:42:51.179Z,6.2
2017-05-22T03:44:09.891Z,6.3
2017-05-22T03:45:28.562Z,6.3
2017-05-22T03:46:47.240Z,6.3
2017-05-22T03:48:05.898Z,6.3
2017-05-22T03:49:24.562Z,6.4
2017-05-22T03:50:43.222Z,6.4
2017-05-22T03:52:01.949Z,6.5
2017-05-22T03:53:20.674Z,6.5
2017-05-22T03:54:39.368Z,6.5
2017-05-22T03:55:58.029Z,6.5
2017-05-22T03:57:16.728Z,6.6
2017-05-22T03:58:35.384Z,6.6
2017-05-22T03:59:54.116Z,6.6
2017-05-22T04:01:12.780Z,6.6
2017-05-22T04:02:31.456Z,6.7
2017-05-22T04:03:50.173Z,6.7
2017-05-22T04:05:08.878Z,6.7
2017-05-22T04:06:27.556Z,6.7
2017-05-22T04:07:46.248Z,6.8
2017-05-22T04:09:04.912Z,6.9
2017-05-22T04:10:23.572Z,6.9
2017-05-22T04:11:42.236Z,7
2017-05-22T04:13:00.943Z,7
2017-05-22T04:14:19.638Z,7.1
2017-05-22T04:15:38.300Z,7.1
2017-05-22T04:16:56.991Z,7.2
2017-05-22T04:18:15.699Z,7.2
2017-05-22T04:19:34.419Z,7.3
2017-05-22T04:20:53.107Z,7.3
2017-05-22T04:22:11.817Z,7.4
2017-05-22T04:23:30.481Z,7.4
2017-05-22T04:24:49.157Z,7.5
2017-05-22T04:26:07.861Z,7.6
2017-05-22T04:27:26.559Z,7.6
2017-05-22T04:28:45.254Z,7.7
2017-05-22T04:30:03.940Z,7.7
2017-05-22T04:31:22.612Z,7.8
2017-05-22T04:32:41.316Z,7.9
2017-05-22T04:34:00.021Z,7.9
2017-05-22T04:35:18.681Z,8
2017-05-22T04:36:37.389Z,8.1
2017-05-22T04:37:56.065Z,8.1
2017-05-22T04:39:14.802Z,8.2
2017-05-22T04:40:33.517Z,8.3
2017-05-22T04:41:52.170Z,8.3
2017-05-22T04:43:10.870Z,8.4
2017-05-22T04:44:29.593Z,8.5
2017-05-22T04:45:48.261Z,8.6
2017-05-22T04:47:06.933Z,8.7
2017-05-22T04:48:25.616Z,8.7
2017-05-22T04:49:44.343Z,8.8
2017-05-22T04:51:03.002Z,8.8
2017-05-22T04:52:21.660Z,8.8
2017-05-22T04:53:40.329Z,8.9
2017-05-22T04:54:59.077Z,9
2017-05-22T04:56:17.739Z,9
2017-05-22T04:57:36.395Z,9
2017-05-22T04:58:55.115Z,9
2017-05-22T05:00:13.814Z,9.1
2017-05-22T05:01:32.528Z,9.1
2017-05-22T05:02:51.187Z,9.1
2017-05-22T05:04:09.893Z,9.1
2017-05-22T05:05:28.590Z,9.1
2017-05-22T05:06:47.314Z,9.1
2017-05-22T05:08:06.016Z,9.2
2017-05-22T05:09:24.676Z,9.3
2017-05-22T05:10:43.386Z,9.3
2017-05-22T05:12:02.052Z,9.4
2017-05-22T05:13:20.721Z,9.5
2017-05-22T05:14:39.384Z,9.6
2017-05-22T05:15:58.137Z,9.6
2017-05-22T05:17:16.823Z,9.7
2017-05-22T05:18:35.495Z,9.8
2017-05-22T05:19:54.187Z,9.8
2017-05-22T05:21:12.928Z,9.9
2017-05-22T05:22:31.613Z,9.9
2017-05-22T05:23:50.323Z,9.9
2017-05-22T05:25:09.054Z,10.1
2017-05-22T05:26:27.745Z,10.2
2017-05-22T05:27:46.435Z,10.3
2017-05-22T05:29:05.130Z,10.4
2017-05-22T05:30:23.831Z,10.5
2017-05-22T05:31:42.546Z,10.5
2017-05-22T05:33:01.225Z,10.6
2017-05-22T05:34:19.897Z,10.7
2017-05-22T05:35:38.582Z,10.7
2017-05-22T05:36:57.331Z,10.8
2017-05-22T05:38:16.027Z,10.9
2017-05-22T05:39:34.711Z,10.9
2017-05-22T05:40:53.386Z,11
2017-05-22T05:42:12.125Z,11
2017-05-22T05:43:30.857Z,11.1
2017-05-22T05:44:49.579Z,11.1
2017-05-22T05:46:08.272Z,11.1
2017-05-22T05:47:27.005Z,11.1
2017-05-22T05:48:45.687Z,11.2
2017-05-22T05:50:04.402Z,11.2
2017-05-22T05:51:23.135Z,11.2
2017-05-22T05:52:41.843Z,11.3
2017-05-22T05:54:00.571Z,11.3
2017-05-22T05:55:19.253Z,11.3
2017-05-22T05:56:37.982Z,11.4
2017-05-22T05:57:56.698Z,11.4
2017-05-22T05:59:15.375Z,11.5
2017-05-22T06:00:34.085Z,11.5
2017-05-22T06:01:52.761Z,11.5
2017-05-22T06:03:11.473Z,11.5
2017-05-22T06:04:30.201Z,11.5
2017-05-22T06:05:48.903Z,11.4
2017-05-22T06:07:07.588Z,11.5
2017-05-22T06:08:26.302Z,11.6
2017-05-22T06:09:44.977Z,11.6
2017-05-22T06:11:03.649Z,11.6
2017-05-22T06:12:22.412Z,11.6
2017-05-22T06:13:41.152Z,11.6
2017-05-22T06:14:59.826Z,11.6
2017-05-22T06:16:18.511Z,11.7
2017-05-22T06:17:37.193Z,11.7
2017-05-22T06:18:55.893Z,11.8
2017-05-22T06:20:14.605Z,11.8
2017-05-22T06:21:33.319Z,11.9
2017-05-22T06:22:52.025Z,12
2017-05-22T06:24:10.732Z,12.1
2017-05-22T06:25:29.461Z,12.2
2017-05-22T06:26:48.189Z,12.4
2017-05-22T06:28:06.864Z,12.5
2017-05-22T06:29:25.607Z,12.6
2017-05-22T06:30:44.293Z,12.7
2017-05-22T06:32:02.975Z,12.8
2017-05-22T06:33:21.700Z,12.9
2017-05-22T06:34:40.379Z,13
2017-05-22T06:35:59.088Z,13.1
2017-05-22T06:37:17.813Z,13.2
2017-05-22T06:38:36.522Z,13.3
2017-05-22T06:39:55.205Z,13.4
2017-05-22T06:41:13.916Z,13.5
2017-05-22T06:42:32.591Z,13.6
2017-05-22T06:43:51.316Z,13.7
2017-05-22T06:45:10.012Z,13.7
2017-05-22T06:46:28.702Z,13.7
2017-05-22T06:47:47.453Z,13.7
2017-05-22T06:49:06.133Z,13.8
2017-05-22T06:50:24.844Z,13.8
2017-05-22T06:51:43.567Z,13.9
2017-05-22T06:53:02.254Z,14
2017-05-22T06:54:20.992Z,14.1
2017-05-22T06:55:39.691Z,14.2
2017-05-22T06:56:58.366Z,14.2
2017-05-22T06:58:17.054Z,14.2
2017-05-22T06:59:35.737Z,14.3
2017-05-22T07:00:54.450Z,14.3
2017-05-22T07:02:13.135Z,14.4
2017-05-22T07:03:31.867Z,14.3
2017-05-22T07:04:50.596Z,14.4
2017-05-22T07:06:09.323Z,14.4
2017-05-22T07:07:28.002Z,14.4
2017-05-22T07:08:46.687Z,14.4
2017-05-22T07:10:05.394Z,14.5
2017-05-22T07:11:24.139Z,14.5
2017-05-22T07:12:42.825Z,14.5
2017-05-22T07:14:01.506Z,14.6
2017-05-22T07:15:20.185Z,14.7
2017-05-22T07:16:38.905Z,14.8
2017-05-22T07:17:57.583Z,14.8
2017-05-22T07:19:16.320Z,14.8
2017-05-22T07:20:35.004Z,14.9
2017-05-22T07:21:53.738Z,14.9
2017-05-22T07:23:12.448Z,14.9
2017-05-22T07:24:31.129Z,15
2017-05-22T07:25:49.877Z,15
2017-05-22T07:27:08.611Z,15.2
2017-05-22T07:28:27.341Z,15.2
2017-05-22T07:29:46.074Z,15.3
2017-05-22T07:31:04.750Z,15.3
2017-05-22T07:32:23.453Z,15.4
2017-05-22T07:33:42.143Z,15.4
2017-05-22T07:35:00.829Z,15.5
2017-05-22T07:36:19.505Z,15.5
2017-05-22T07:37:38.243Z,15.6
2017-05-22T07:38:56.922Z,15.7
2017-05-22T07:40:15.652Z,15.6
2017-05-22T07:41:34.336Z,15.7
2017-05-22T07:42:53.053Z,15.6
2017-05-22T07:44:11.729Z,15.6
2017-05-22T07:45:30.462Z,15.6
2017-05-22T07:46:49.162Z,15.6
2017-05-22T07:48:07.907Z,15.7
2017-05-22T07:49:26.648Z,15.7
2017-05-22T07:50:45.340Z,15.7
2017-05-22T07:52:04.087Z,15.7
2017-05-22T07:53:22.837Z,15.8
2017-05-22T07:54:41.563Z,15.8
2017-05-22T07:56:00.285Z,15.8
2017-05-22T07:57:18.999Z,15.8
2017-05-22T07:58:37.716Z,15.8
2017-05-22T07:59:56.401Z,15.9
2017-05-22T08:01:15.122Z,16
2017-05-22T08:02:33.808Z,16
2017-05-22T08:03:52.502Z,16.1
2017-05-22T08:05:11.236Z,16.1
2017-05-22T08:06:29.916Z,16.1
2017-05-22T08:07:48.644Z,16.1
2017-05-22T08:09:07.430Z,16.1
2017-05-22T08:10:26.111Z,16.1
2017-05-22T08:11:44.792Z,16.2
2017-05-22T08:13:03.470Z,16.2
2017-05-22T08:14:22.220Z,16.2
2017-05-22T08:15:40.897Z,16.3
2017-05-22T08:16:59.581Z,16.3
2017-05-22T08:18:18.256Z,16.3
2017-05-22T08:19:36.961Z,16.3
2017-05-22T08:20:55.669Z,16.5
2017-05-22T08:22:14.395Z,16.6
2017-05-22T08:23:33.099Z,16.7
2017-05-22T08:24:51.804Z,16.6
2017-05-22T08:26:10.480Z,16.6
2017-05-22T08:27:29.193Z,16.6
2017-05-22T08:28:47.899Z,16.6
2017-05-22T08:30:06.588Z,16.6
2017-05-22T08:31:25.312Z,16.6
2017-05-22T08:32:44.018Z,16.8
2017-05-22T08:34:02.698Z,16.8
2017-05-22T08:35:21.408Z,16.7
2017-05-22T08:36:40.135Z,16.7
2017-05-22T08:37:58.878Z,16.7
2017-05-22T08:39:17.612Z,16.8
2017-05-22T08:40:36.353Z,16.8
2017-05-22T08:41:55.074Z,16.8
2017-05-22T08:43:13.823Z,16.9
2017-05-22T08:44:32.583Z,16.9
2017-05-22T08:45:51.266Z,17
2017-05-22T08:47:09.985Z,17
2017-05-22T08:48:28.667Z,16.8
2017-05-22T08:49:47.404Z,16.8
2017-05-22T08:51:06.137Z,16.7
2017-05-22T08:52:24.808Z,16.6
2017-05-22T08:53:43.512Z,16.5
2017-05-22T08:55:02.193Z,16.6
2017-05-22T08:56:20.867Z,16.7
2017-05-22T08:57:39.573Z,16.7
2017-05-22T08:58:58.262Z,16.9
2017-05-22T09:00:16.961Z,17
2017-05-22T09:01:35.659Z,17.1
2017-05-22T09:02:54.387Z,17.4
2017-05-22T09:04:13.088Z,17.7
2017-05-22T09:05:31.784Z,18
2017-05-22T09:06:50.467Z,18
2017-05-22T09:08:09.153Z,17.8
2017-05-22T09:09:27.834Z,17.8
2017-05-22T09:10:46.560Z,17.7
2017-05-22T09:12:05.269Z,17.8
2017-05-22T09:13:24.003Z,18
2017-05-22T09:14:42.664Z,18.1
2017-05-22T09:16:01.354Z,18.1
2017-05-22T09:17:20.065Z,18.1
2017-05-22T09:18:38.814Z,18.1
2017-05-22T09:19:57.500Z,18.3
2017-05-22T09:21:16.233Z,18.4
2017-05-22T09:22:34.914Z,18.5
2017-05-22T09:23:53.591Z,18.5
2017-05-22T09:25:12.327Z,18.5
2017-05-22T09:26:31.023Z,18.5
2017-05-22T09:27:49.713Z,18.5
2017-05-22T09:29:08.433Z,18.6
2017-05-22T09:30:27.114Z,18.7
2017-05-22T09:31:45.872Z,18.6
2017-05-22T09:33:04.576Z,18.7
2017-05-22T09:34:23.288Z,18.8
2017-05-22T09:35:41.970Z,18.7
2017-05-22T09:37:00.640Z,18.7
2017-05-22T09:38:19.363Z,18.8
2017-05-22T09:39:38.089Z,18.8
2017-05-22T09:40:56.764Z,18.9
2017-05-22T09:42:15.442Z,19
2017-05-22T09:43:34.163Z,19.1
2017-05-22T09:44:52.888Z,19.1
2017-05-22T09:46:11.619Z,19.1
2017-05-22T09:47:30.361Z,19.1
2017-05-22T09:48:49.071Z,19.1
2017-05-22T09:50:07.762Z,19
2017-05-22T09:51:26.443Z,18.9
2017-05-22T09:52:45.147Z,18.9
2017-05-22T09:54:03.879Z,18.9
2017-05-22T09:55:22.569Z,19
2017-05-22T09:56:41.245Z,19
2017-05-22T09:57:59.928Z,19
2017-05-22T09:59:18.616Z,19
2017-05-22T10:00:37.352Z,19.1
2017-05-22T10:01:56.024Z,19
2017-05-22T10:03:14.740Z,19
2017-05-22T10:04:33.436Z,19.2
2017-05-22T10:05:52.111Z,19.4
2017-05-22T10:07:10.794Z,19.3
2017-05-22T10:08:29.499Z,19.4
2017-05-22T10:09:48.181Z,19.5
2017-05-22T10:11:06.877Z,19.5
2017-05-22T10:12:25.579Z,19.7
2017-05-22T10:13:44.311Z,19.9
2017-05-22T10:15:03.071Z,20
2017-05-22T10:16:21.774Z,20.3
2017-05-22T10:17:40.484Z,20.5
2017-05-22T10:18:59.176Z,21
2017-05-22T10:20:17.894Z,21.5
2017-05-22T10:21:36.571Z,21.9
2017-05-22T10:22:55.253Z,22.3
2017-05-22T10:24:13.962Z,22.6
2017-05-22T10:25:32.686Z,22.8
2017-05-22T10:26:51.357Z,22.9
2017-05-22T10:28:10.089Z,22.9
2017-05-22T10:29:28.786Z,22.8
2017-05-22T10:30:47.524Z,23.1
2017-05-22T10:32:06.207Z,23.5
2017-05-22T10:33:24.881Z,23.6
2017-05-22T10:34:43.578Z,23.7
2017-05-22T10:36:02.341Z,23.7
2017-05-22T10:37:21.016Z,23.7
2017-05-22T10:38:39.699Z,23.9
2017-05-22T10:39:58.424Z,24
2017-05-22T10:41:17.134Z,24.2
2017-05-22T10:42:35.811Z,24.3
2017-05-22T10:43:54.539Z,24.3
2017-05-22T10:45:13.260Z,24.4
2017-05-22T10:46:31.958Z,24.7
2017-05-22T10:47:50.664Z,24.9
2017-05-22T10:49:09.385Z,24.9
2017-05-22T10:50:28.110Z,24.8
2017-05-22T10:51:46.820Z,24.8
2017-05-22T10:53:05.540Z,24.6
2017-05-22T10:54:24.208Z,24.6
2017-05-22T10:55:42.884Z,24.4
2017-05-22T10:57:01.589Z,24.5
2017-05-22T10:58:20.323Z,24.5
2017-05-22T10:59:39.033Z,24.3
2017-05-22T11:00:57.714Z,24.3
2017-05-22T11:02:16.434Z,24.3
2017-05-22T11:03:35.126Z,24.2
2017-05-22T11:04:53.853Z,24.1
2017-05-22T11:06:12.576Z,24.1
2017-05-22T11:07:31.275Z,24.1
2017-05-22T11:08:49.952Z,24.3
2017-05-22T11:10:08.624Z,24.5
2017-05-22T11:11:27.309Z,24.6
2017-05-22T11:12:46.024Z,24.7
2017-05-22T11:14:04.756Z,24.7
2017-05-22T11:15:23.470Z,24.6
2017-05-22T11:16:42.161Z,24.2
2017-05-22T11:18:00.848Z,24.1
2017-05-22T11:19:19.570Z,23.9
2017-05-22T11:20:38.251Z,23.9
2017-05-22T11:21:56.996Z,24.1
2017-05-22T11:23:15.709Z,24.4
2017-05-22T11:24:34.378Z,24.7
2017-05-22T11:25:53.075Z,25.1
2017-05-22T11:27:11.757Z,25.1
2017-05-22T11:28:30.442Z,25.5
2017-05-22T11:29:49.180Z,25.8
2017-05-22T11:31:07.862Z,25.6
2017-05-22T11:32:26.567Z,25.4
2017-05-22T11:33:45.265Z,25.5
2017-05-22T11:35:03.977Z,25.5
2017-05-22T11:36:22.691Z,25.6
2017-05-22T11:37:41.384Z,25.8
2017-05-22T11:39:00.132Z,26
2017-05-22T11:40:18.833Z,26
2017-05-22T11:41:37.564Z,26.2
2017-05-22T11:42:56.307Z,26
2017-05-22T11:44:14.993Z,26
2017-05-22T11:45:33.666Z,25.9
2017-05-22T11:46:52.402Z,26
2017-05-22T11:48:11.098Z,26.1
2017-05-22T11:49:29.834Z,26.2
2017-05-22T11:50:48.503Z,26.2
2017-05-22T11:52:07.174Z,26.1
2017-05-22T11:53:25.861Z,26.1
2017-05-22T11:54:44.595Z,26.3
2017-05-22T11:56:03.316Z,26.3
2017-05-22T11:57:22.050Z,26.4
2017-05-22T11:58:40.734Z,26.5
2017-05-22T11:59:59.445Z,26.6
2017-05-22T12:01:18.171Z,26.5
2017-05-22T12:02:36.843Z,26.4
2017-05-22T12:03:55.570Z,26.4
2017-05-22T12:05:14.308Z,26.3
2017-05-22T12:06:32.982Z,25.9
2017-05-22T12:07:51.692Z,25.6
2017-05-22T12:09:10.404Z,25.4
2017-05-22T12:10:29.185Z,25.5
2017-05-22T12:11:47.866Z,25.4
2017-05-22T12:13:06.569Z,25.4
2017-05-22T12:14:25.268Z,25.6
2017-05-22T12:15:44.010Z,25.5
2017-05-22T12:17:02.680Z,25.5
2017-05-22T12:18:21.362Z,25.6
2017-05-22T12:19:40.054Z,25.5
2017-05-22T12:20:58.799Z,25.5
2017-05-22T12:22:17.478Z,25.5
2017-05-22T12:23:36.148Z,25.7
2017-05-22T12:24:54.848Z,25.6
2017-05-22T12:26:13.584Z,25.4
2017-05-22T12:27:32.317Z,25.3
2017-05-22T12:28:51.001Z,25.2
2017-05-22T12:30:09.710Z,25.2
2017-05-22T12:31:28.416Z,25.3
2017-05-22T12:32:47.092Z,25.4
2017-05-22T12:34:05.818Z,25.5
2017-05-22T12:35:24.495Z,25.3
2017-05-22T12:36:43.218Z,25.5
2017-05-22T12:38:01.906Z,25.5
2017-05-22T12:39:20.637Z,25.5
2017-05-22T12:40:39.389Z,25.6
2017-05-22T12:41:58.104Z,25.7
2017-05-22T12:43:16.833Z,25.5
2017-05-22T12:44:35.533Z,25.3
2017-05-22T12:45:54.213Z,25.1
2017-05-22T12:47:12.896Z,25.2
2017-05-22T12:48:31.577Z,25.3
2017-05-22T12:49:50.255Z,25.3
2017-05-22T12:51:08.983Z,25.4
2017-05-22T12:52:27.697Z,25.3
2017-05-22T12:53:46.407Z,25.3
2017-05-22T12:55:05.096Z,25.3
2017-05-22T12:56:23.790Z,25
2017-05-22T12:57:42.497Z,24.7
2017-05-22T12:59:01.170Z,24.7
2017-05-22T13:00:19.861Z,24.5
2017-05-22T13:01:38.585Z,24.5
2017-05-22T13:02:57.330Z,24.2
2017-05-22T13:04:16.009Z,24
2017-05-22T13:05:34.698Z,23.7
2017-05-22T13:06:53.370Z,23.8
2017-05-22T13:08:12.125Z,23.7
2017-05-22T13:09:30.824Z,23.5
2017-05-22T13:10:49.493Z,23.5
2017-05-22T13:12:08.177Z,23.5
2017-05-22T13:13:26.888Z,23.5
2017-05-22T13:14:45.587Z,23.5
2017-05-22T13:16:04.290Z,23.4
2017-05-22T13:17:22.962Z,23.3
2017-05-22T13:18:41.696Z,23.3
2017-05-22T13:20:00.372Z,23.3
2017-05-22T13:21:19.072Z,23.1
2017-05-22T13:22:37.745Z,23
2017-05-22T13:23:56.481Z,22.9
2017-05-22T13:25:15.155Z,23
2017-05-22T13:26:33.952Z,23
2017-05-22T13:27:52.642Z,23
2017-05-22T13:29:11.347Z,23
2017-05-22T13:30:30.080Z,22.9
2017-05-22T13:31:48.769Z,22.9
2017-05-22T13:33:07.452Z,22.9
2017-05-22T13:34:26.159Z,22.9
2017-05-22T13:35:44.882Z,22.9
2017-05-22T13:37:03.566Z,23.1
2017-05-22T13:38:22.299Z,23.2
2017-05-22T13:39:40.979Z,23.2
2017-05-22T13:40:59.658Z,23.4
2017-05-22T13:42:18.380Z,23.5
2017-05-22T13:43:37.133Z,23.8
2017-05-22T13:44:55.815Z,23.9
2017-05-22T13:46:14.546Z,24
2017-05-22T13:47:33.293Z,24.1
2017-05-22T13:48:51.965Z,24.2
2017-05-22T13:50:10.668Z,24.4
2017-05-22T13:51:29.421Z,24.5
2017-05-22T13:52:48.128Z,24.6
2017-05-22T13:54:06.831Z,24.7
2017-05-22T13:55:25.593Z,24.9
2017-05-22T13:56:44.269Z,25
2017-05-22T13:58:02.957Z,25
2017-05-22T13:59:21.636Z,25.1
2017-05-22T14:00:40.387Z,25.2
2017-05-22T14:01:59.095Z,25.2
2017-05-22T14:03:17.826Z,25.1
2017-05-22T14:04:36.526Z,24.9
2017-05-22T14:05:55.273Z,24.6
2017-05-22T14:07:13.973Z,24.7
2017-05-22T14:08:32.655Z,24.6
2017-05-22T14:09:51.374Z,24.4
2017-05-22T14:11:10.081Z,24.4
2017-05-22T14:12:28.805Z,24.5
2017-05-22T14:13:47.535Z,24.6
2017-05-22T14:15:06.272Z,25
2017-05-22T14:16:24.970Z,25.1
2017-05-22T14:17:43.674Z,25.2
2017-05-22T14:19:02.410Z,25.2
2017-05-22T14:20:21.096Z,25.3
2017-05-22T14:21:39.788Z,25.3
2017-05-22T14:22:58.464Z,25.3
2017-05-22T14:24:17.177Z,25.2
2017-05-22T14:25:35.908Z,25.5
2017-05-22T14:26:54.598Z,25.8
2017-05-22T14:28:13.308Z,26.4
2017-05-22T14:29:32.031Z,27.1
2017-05-22T14:30:50.761Z,27.8
2017-05-22T14:32:09.443Z,28.8
2017-05-22T14:33:28.125Z,30
2017-05-22T14:34:46.807Z,30.1
2017-05-22T14:36:05.489Z,30.1
2017-05-22T14:37:24.186Z,30.7
2017-05-22T14:38:42.917Z,30.8
2017-05-22T14:40:01.602Z,30.8
2017-05-22T14:41:20.331Z,30
2017-05-22T14:42:39.065Z,29.2
2017-05-22T14:43:57.738Z,28.2
2017-05-22T14:45:16.444Z,27.5
2017-05-22T14:46:35.146Z,26.8
2017-05-22T14:47:53.886Z,26.4
2017-05-22T14:49:12.572Z,26
2017-05-22T14:50:31.309Z,25.8
2017-05-22T14:51:49.991Z,25.5
2017-05-22T14:53:08.672Z,25.2
2017-05-22T14:54:27.408Z,24.9
2017-05-22T14:55:46.094Z,24.9
2017-05-22T14:57:04.765Z,24.9
2017-05-22T14:58:23.464Z,24.7
2017-05-22T14:59:42.183Z,24.8
2017-05-22T15:01:00.898Z,24.7
2017-05-22T15:02:19.611Z,24.8
2017-05-22T15:03:38.355Z,24.6
2017-05-22T15:04:57.042Z,24.7
2017-05-22T15:06:15.705Z,24.6
2017-05-22T15:07:34.381Z,24.5
2017-05-22T15:08:53.071Z,24.6
2017-05-22T15:10:11.753Z,24.9
2017-05-22T15:11:30.433Z,25
2017-05-22T15:12:49.167Z,25.2
2017-05-22T15:14:07.867Z,25.5
2017-05-22T15:15:26.574Z,25.7
2017-05-22T15:16:45.301Z,26.1
2017-05-22T15:18:04.070Z,26.1
2017-05-22T15:19:22.809Z,26.4
2017-05-22T15:20:41.489Z,26.3
2017-05-22T15:22:00.156Z,26.6
2017-05-22T15:23:18.859Z,26.9
2017-05-22T15:24:37.575Z,27.1
2017-05-22T15:25:56.298Z,27.4
2017-05-22T15:27:14.979Z,27.3
2017-05-22T15:28:33.667Z,27.5
2017-05-22T15:29:52.445Z,27.2
2017-05-22T15:31:11.171Z,27.2
2017-05-22T15:32:29.856Z,27.1
2017-05-22T15:33:48.607Z,27
2017-05-22T15:35:07.374Z,26.8
2017-05-22T15:36:26.052Z,26.8
2017-05-22T15:37:44.726Z,26.4
2017-05-22T15:39:03.405Z,26.3
2017-05-22T15:40:22.093Z,26.4
2017-05-22T15:41:40.764Z,26.4
2017-05-22T15:42:59.433Z,26.5
2017-05-22T15:44:18.114Z,26.3
2017-05-22T15:45:36.881Z,26
2017-05-22T15:46:55.605Z,25.5
2017-05-22T15:48:14.327Z,25.4
2017-05-22T15:49:33.038Z,25.4
2017-05-22T15:50:51.760Z,25.1
2017-05-22T15:52:10.490Z,25
2017-05-22T15:53:29.172Z,24.5
2017-05-22T15:54:47.853Z,24.2
2017-05-22T15:56:06.601Z,23.7
2017-05-22T15:57:25.329Z,23.4
2017-05-22T15:58:44.032Z,23.3
2017-05-22T16:00:02.705Z,23
2017-05-22T16:01:21.389Z,22.7
2017-05-22T16:02:40.072Z,22.6
2017-05-22T16:03:58.785Z,22.5
2017-05-22T16:05:17.536Z,22.4
2017-05-22T16:06:36.234Z,22.3
2017-05-22T16:07:54.910Z,22.2
2017-05-22T16:09:13.597Z,22.2
2017-05-22T16:10:32.329Z,22.3
2017-05-22T16:11:51.045Z,22.2
2017-05-22T16:13:09.741Z,22
2017-05-22T16:14:28.423Z,21.8
2017-05-22T16:15:47.097Z,21.9
2017-05-22T16:17:05.789Z,21.9
2017-05-22T16:18:24.528Z,22
2017-05-22T16:19:43.239Z,22.1
2017-05-22T16:21:01.940Z,22.1
2017-05-22T16:22:20.621Z,22.3
2017-05-22T16:23:39.332Z,22.4
2017-05-22T16:24:58.044Z,22.3
2017-05-22T16:26:16.769Z,22.2
2017-05-22T16:27:35.476Z,22
2017-05-22T16:28:54.179Z,22
2017-05-22T16:30:12.860Z,22.1
2017-05-22T16:31:31.668Z,22.1
2017-05-22T16:32:50.415Z,22.1
2017-05-22T16:34:09.124Z,22.2
2017-05-22T16:35:27.797Z,21.8
2017-05-22T16:36:46.552Z,22
2017-05-22T16:38:05.254Z,22.2
2017-05-22T16:39:23.975Z,22.4
2017-05-22T16:40:42.653Z,23.5
2017-05-22T16:42:01.329Z,23.8
2017-05-22T16:43:20.021Z,23.7
2017-05-22T16:44:38.778Z,24.7
2017-05-22T16:45:57.465Z,24.8
2017-05-22T16:47:16.140Z,25
2017-05-22T16:48:34.883Z,26.4
2017-05-22T16:49:53.575Z,25.5
2017-05-22T16:51:12.284Z,25.8
2017-05-22T16:52:30.988Z,26.3
2017-05-22T16:53:49.690Z,27.5
2017-05-22T16:55:08.409Z,29.3
2017-05-22T16:56:27.104Z,29.3
2017-05-22T16:57:45.793Z,28.6
2017-05-22T16:59:04.495Z,27.7
2017-05-22T17:00:23.168Z,27.1
2017-05-22T17:01:41.842Z,27.1
2017-05-22T17:03:00.573Z,25.9
2017-05-22T17:04:19.291Z,24.8
2017-05-22T17:05:38.016Z,24.2
2017-05-22T17:06:56.725Z,24.4
2017-05-22T17:08:15.438Z,25.3
2017-05-22T17:09:34.154Z,26.3
2017-05-22T17:10:52.843Z,27.6
2017-05-22T17:12:11.571Z,28.6
2017-05-22T17:13:30.251Z,28.8
2017-05-22T17:14:48.964Z,28.7
2017-05-22T17:16:07.666Z,28.9
2017-05-22T17:17:26.344Z,27.9
2017-05-22T17:18:45.061Z,27.2
2017-05-22T17:20:03.784Z,27.1
2017-05-22T17:21:22.508Z,27.6
2017-05-22T17:22:41.200Z,29
2017-05-22T17:23:59.887Z,30.2
2017-05-22T17:25:18.594Z,30.8
2017-05-22T17:26:37.328Z,30.3
2017-05-22T17:27:56.003Z,30.2
2017-05-22T17:29:14.730Z,30.5
2017-05-22T17:30:33.441Z,28.7
2017-05-22T17:31:52.159Z,26.5
2017-05-22T17:33:10.836Z,24.7
2017-05-22T17:34:29.568Z,23.2
2017-05-22T17:35:48.290Z,22.1
2017-05-22T17:37:06.991Z,21.4
2017-05-22T17:38:25.670Z,20.9
2017-05-22T17:39:44.388Z,20.3
2017-05-22T17:41:03.072Z,20.1
2017-05-22T17:42:21.788Z,20
2017-05-22T17:43:40.468Z,19.7
2017-05-22T17:44:59.159Z,19.5